Time;durP1;ratioP1;P1;durP2;ratioP2;P2;SDS_P1;SDS_P2;PMS_P1;PMS_P2;Temp;Humidity;BMP_temperature;BMP_pressure;BME280_temperature;BME280_humidity;BME280_pressure;Samples;Min_cycle;Max_cycle;Signal;HPM_P1;HPM_P2
2024/03/27 00:00:01;;;;;;;1.90;1.77;;;;;;;27.52;31.49;96245.22;7398214;19;20010;-57
2024/03/27 00:02:27;;;;;;;4.60;1.73;;;;;;;27.10;31.71;96240.59;7399199;19;20104;-56
2024/03/27 00:04:53;;;;;;;5.55;2.38;;;;;;;26.78;31.99;96235.53;7396113;19;20015;-56
2024/03/27 00:07:20;;;;;;;6.20;2.17;;;;;;;26.73;32.06;96233.22;7398756;19;20018;-57
2024/03/27 00:09:46;;;;;;;4.32;1.70;;;;;;;26.55;32.46;96236.31;7398893;19;20015;-56
2024/03/27 00:12:12;;;;;;;3.05;1.27;;;;;;;26.55;32.53;96227.75;7398446;19;20021;-56
2024/03/27 00:14:39;;;;;;;3.50;1.85;;;;;;;27.55;31.49;96223.09;7399048;19;20045;-56
2024/03/27 00:17:05;;;;;;;7.65;2.40;;;;;;;26.63;32.52;96216.56;7397756;19;20014;-56
2024/03/27 00:19:31;;;;;;;1.75;0.73;;;;;;;27.91;31.37;96209.59;7398747;19;20014;-57
2024/03/27 00:21:57;;;;;;;4.38;2.20;;;;;;;26.88;32.14;96212.94;7398964;19;20014;-56
2024/03/27 00:24:23;;;;;;;4.88;1.88;;;;;;;26.64;32.67;96206.56;7395357;19;20463;-56
2024/03/27 00:26:49;;;;;;;3.30;2.35;;;;;;;26.56;32.73;96217.78;7399689;19;20015;-56
2024/03/27 00:29:15;;;;;;;2.53;1.52;;;;;;;26.53;32.56;96204.84;7397367;19;20017;-56
2024/03/27 00:31:42;;;;;;;3.63;2.15;;;;;;;26.50;32.49;96206.22;7397283;19;20037;-56
2024/03/27 00:34:08;;;;;;;5.40;2.53;;;;;;;27.43;31.65;96199.97;7397094;19;20019;-56
2024/03/27 00:36:34;;;;;;;4.95;2.17;;;;;;;27.27;31.65;96197.44;7398132;19;20010;-56
2024/03/27 00:39:00;;;;;;;5.47;0.98;;;;;;;27.43;32.19;96203.56;7398385;19;20003;-56
2024/03/27 00:41:26;;;;;;;5.50;2.08;;;;;;;27.04;32.10;96196.19;7397772;19;20030;-56
2024/03/27 00:43:52;;;;;;;1.80;1.50;;;;;;;28.35;30.76;96199.06;7397691;19;20337;-56
2024/03/27 00:46:18;;;;;;;1.90;1.70;;;;;;;28.92;30.13;96200.09;7396447;19;20015;-56
2024/03/27 00:48:44;;;;;;;2.33;1.65;;;;;;;28.31;31.02;96198.25;7400440;19;20010;-56
2024/03/27 00:51:10;;;;;;;5.28;1.30;;;;;;;28.30;31.10;96196.81;7396966;19;20387;-56
2024/03/27 00:53:36;;;;;;;4.15;1.55;;;;;;;28.17;31.02;96175.84;7397054;19;20361;-56
2024/03/27 00:56:04;;;;;;;7.10;1.48;;;;;;;27.25;31.34;96170.94;7400931;19;20042;-56
2024/03/27 00:58:30;;;;;;;0.50;0.50;;;;;;;28.01;30.36;96177.63;7398866;19;20023;-56
2024/03/27 01:00:57;;;;;;;0.70;0.70;;;;;;;27.57;30.90;96177.44;7396651;19;20014;-56
2024/03/27 01:03:27;;;;;;;4.15;1.55;;;;;;;27.41;31.33;96188.50;7396035;19;20014;-56
2024/03/27 01:05:53;;;;;;;1.27;1.15;;;;;;;27.65;31.01;96183.31;7396462;19;20014;-56
2024/03/27 01:08:20;;;;;;;3.40;0.55;;;;;;;26.70;31.63;96181.06;7397811;19;20331;-56
2024/03/27 01:10:46;;;;;;;0.77;0.77;;;;;;;26.29;32.38;96182.13;7396450;19;20324;-56
2024/03/27 01:13:17;;;;;;;0.73;0.73;;;;;;;26.62;32.04;96172.28;7396088;19;20011;-56
2024/03/27 01:15:50;;;;;;;0.60;0.60;;;;;;;26.56;31.54;96180.69;7397073;19;20017;-56
2024/03/27 01:18:17;;;;;;;0.68;0.63;;;;;;;26.33;32.28;96179.38;7398760;19;20475;-56
2024/03/27 01:20:43;;;;;;;0.63;0.63;;;;;;;26.17;32.36;96175.38;7395722;19;20395;-56
2024/03/27 01:23:13;;;;;;;0.52;0.52;;;;;;;26.07;32.34;96184.38;7395424;19;20010;-56
2024/03/27 01:25:39;;;;;;;0.40;0.40;;;;;;;26.50;31.85;96171.25;7394497;19;20018;-56
2024/03/27 01:28:06;;;;;;;0.57;0.57;;;;;;;26.74;31.32;96172.63;7397327;19;20466;-56
2024/03/27 01:30:33;;;;;;;0.68;0.57;;;;;;;26.61;31.51;96164.41;7396456;19;20010;-56
2024/03/27 01:32:59;;;;;;;0.60;0.60;;;;;;;26.48;31.64;96159.78;7396109;19;20014;-56
2024/03/27 01:35:25;;;;;;;0.30;0.30;;;;;;;27.35;30.94;96162.63;7395343;19;20006;-56
2024/03/27 01:37:52;;;;;;;1.27;0.70;;;;;;;27.39;30.50;96163.47;7396332;19;20363;-56
2024/03/27 01:40:19;;;;;;;0.20;0.20;;;;;;;26.51;31.58;96156.28;7394052;19;20017;-56
2024/03/27 01:42:45;;;;;;;0.35;0.35;;;;;;;26.18;31.97;96159.72;7392972;19;20420;-56
2024/03/27 01:45:13;;;;;;;0.32;0.32;;;;;;;26.00;32.09;96156.34;7397421;19;20010;-56
2024/03/27 01:47:42;;;;;;;0.30;0.30;;;;;;;26.05;32.07;96146.50;7395975;19;20021;-56
2024/03/27 01:50:12;;;;;;;0.30;0.30;;;;;;;26.02;32.16;96144.97;7394772;19;20014;-56
2024/03/27 01:52:40;;;;;;;0.60;0.60;;;;;;;26.12;31.97;96133.88;7394690;19;20027;-56
2024/03/27 01:55:08;;;;;;;0.20;0.20;;;;;;;26.20;32.04;96136.94;7394696;19;20046;-56
2024/03/27 01:57:37;;;;;;;0.57;0.57;;;;;;;25.88;32.12;96133.22;7398120;19;20384;-56
2024/03/27 02:00:05;;;;;;;3.72;0.43;;;;;;;25.73;32.39;96123.50;7394098;19;20022;-56
2024/03/27 02:02:40;;;;;;;0.20;0.20;;;;;;;25.65;32.36;96114.00;7393227;19;20018;-56
2024/03/27 02:05:07;;;;;;;0.38;0.38;;;;;;;25.85;32.23;96114.56;7392960;19;20019;-56
2024/03/27 02:07:38;;;;;;;0.30;0.30;;;;;;;25.82;32.02;96110.22;7394973;19;20014;-56
2024/03/27 02:10:06;;;;;;;0.95;0.73;;;;;;;25.71;32.17;96102.81;7394791;19;20029;-56
2024/03/27 02:12:32;;;;;;;0.35;0.35;;;;;;;26.05;32.17;96107.28;7393919;19;20006;-55
2024/03/27 02:15:05;;;;;;;0.50;0.50;;;;;;;25.71;32.31;96091.41;7393920;19;20010;-56
2024/03/27 02:17:32;;;;;;;0.20;0.20;;;;;;;26.20;31.74;96086.34;7393175;19;20014;-55
2024/03/27 02:19:58;;;;;;;0.30;0.30;;;;;;;26.06;32.08;96080.22;7395246;19;20070;-55
2024/03/27 02:22:26;;;;;;;0.25;0.25;;;;;;;26.02;32.11;96087.94;7394173;19;20014;-55
2024/03/27 02:25:00;;;;;;;0.25;0.25;;;;;;;26.18;31.98;96091.25;7392960;19;20011;-55
2024/03/27 02:27:26;;;;;;;0.40;0.40;;;;;;;26.22;31.96;96097.06;7398720;19;20007;-55
2024/03/27 02:29:52;;;;;;;0.35;0.35;;;;;;;26.20;31.81;96094.16;7393845;19;20015;-56
2024/03/27 02:32:18;;;;;;;0.40;0.40;;;;;;;26.35;31.54;96095.97;7395349;19;20018;-55
2024/03/27 02:34:45;;;;;;;0.20;0.20;;;;;;;27.08;31.11;96094.84;7393647;19;20038;-55
2024/03/27 02:37:11;;;;;;;0.30;0.30;;;;;;;27.34;30.70;96087.59;7393854;19;20007;-55
2024/03/27 02:39:37;;;;;;;0.15;0.15;;;;;;;27.43;30.51;96082.78;7393100;19;20750;-55
2024/03/27 02:42:03;;;;;;;1.88;0.63;;;;;;;27.99;30.19;96078.22;7393054;19;20554;-55
2024/03/27 02:44:29;;;;;;;0.20;0.20;;;;;;;28.15;29.72;96067.06;7394249;19;20011;-55
2024/03/27 02:46:55;;;;;;;1.33;0.75;;;;;;;27.86;29.80;96076.50;7393596;19;20474;-56
2024/03/27 02:49:21;;;;;;;0.22;0.13;;;;;;;27.69;29.99;96069.75;7393279;19;20525;-55
2024/03/27 02:51:47;;;;;;;1.67;1.58;;;;;;;27.59;30.00;96078.13;7392867;19;20361;-56
2024/03/27 02:54:13;;;;;;;0.20;0.20;;;;;;;27.44;29.91;96084.97;7389480;19;20025;-56
2024/03/27 02:56:40;;;;;;;0.30;0.30;;;;;;;28.01;29.54;96083.22;7394572;19;20470;-56
2024/03/27 02:59:06;;;;;;;0.20;0.20;;;;;;;28.80;28.94;96103.25;7392330;19;20007;-55
2024/03/27 03:01:32;;;;;;;0.38;0.38;;;;;;;28.37;29.57;96098.91;7390515;19;20339;-56
2024/03/27 03:03:58;;;;;;;0.30;0.30;;;;;;;28.42;29.09;96091.13;7390008;19;20006;-56
2024/03/27 03:06:24;;;;;;;0.25;0.25;;;;;;;28.98;28.54;96083.44;7393351;19;20014;-56
2024/03/27 03:08:50;;;;;;;0.50;0.50;;;;;;;29.17;28.75;96081.59;7392307;19;20021;-56
2024/03/27 03:11:17;;;;;;;0.17;0.17;;;;;;;29.52;27.86;96079.91;7393036;19;20041;-56
2024/03/27 03:13:43;;;;;;;0.20;0.20;;;;;;;27.69;29.83;96081.19;7392482;19;20082;-56
2024/03/27 03:16:09;;;;;;;1.65;0.63;;;;;;;26.89;30.36;96085.16;7391691;19;20506;-56
2024/03/27 03:18:36;;;;;;;0.20;0.20;;;;;;;27.54;29.61;96081.59;7395091;19;20074;-56
2024/03/27 03:21:03;;;;;;;0.20;0.20;;;;;;;27.15;30.24;96091.47;7391642;19;20043;-56
2024/03/27 03:23:30;;;;;;;0.32;0.32;;;;;;;29.88;27.90;96092.56;7391243;19;20007;-56
2024/03/27 03:25:56;;;;;;;0.20;0.20;;;;;;;30.22;27.42;96094.34;7391078;19;20011;-56
2024/03/27 03:28:22;;;;;;;0.30;0.30;;;;;;;29.33;28.46;96076.06;7393655;19;20078;-56
2024/03/27 03:30:49;;;;;;;0.60;0.50;;;;;;;28.21;29.20;96058.56;7392203;19;20011;-56
2024/03/27 03:33:15;;;;;;;0.57;0.43;;;;;;;27.67;29.84;96057.56;7392906;19;20852;-56
2024/03/27 03:35:41;;;;;;;0.30;0.30;;;;;;;27.40;29.75;96052.72;7392206;19;20018;-56
2024/03/27 03:38:07;;;;;;;0.28;0.28;;;;;;;27.16;30.30;96049.34;7394082;19;20006;-56
2024/03/27 03:40:50;;;;;;;0.32;0.32;;;;;;;28.29;29.08;96035.81;7391487;19;20010;-56
2024/03/27 03:43:16;;;;;;;0.25;0.25;;;;;;;27.49;30.01;96031.47;7390742;19;20347;-55
2024/03/27 03:45:43;;;;;;;0.35;0.35;;;;;;;26.83;30.60;96007.94;7391653;19;20042;-56
2024/03/27 03:48:09;;;;;;;0.30;0.30;;;;;;;26.76;30.71;96021.34;7392371;19;20027;-56
2024/03/27 03:50:35;;;;;;;0.40;0.40;;;;;;;27.05;30.48;96000.56;7391244;19;20462;-56
2024/03/27 03:53:02;;;;;;;0.20;0.20;;;;;;;27.07;30.46;95984.88;7391515;19;20010;-56
2024/03/27 03:55:28;;;;;;;0.30;0.30;;;;;;;27.44;29.59;95981.38;7390389;19;20007;-56
2024/03/27 03:57:55;;;;;;;1.02;0.73;;;;;;;27.45;29.69;95977.06;7391076;19;20010;-56
2024/03/27 04:00:21;;;;;;;3.97;0.40;;;;;;;27.27;29.84;95959.53;7391016;19;20509;-56
2024/03/27 04:02:47;;;;;;;0.43;0.40;;;;;;;27.57;29.87;95948.72;7391281;19;20383;-56
2024/03/27 04:05:13;;;;;;;0.30;0.30;;;;;;;27.55;29.35;95946.53;7393223;19;20526;-56
2024/03/27 04:07:40;;;;;;;0.38;0.38;;;;;;;27.14;29.89;95946.47;7399345;19;20458;-56
2024/03/27 04:10:06;;;;;;;0.28;0.28;;;;;;;26.67;30.70;95939.75;7397808;19;20019;-56
2024/03/27 04:12:33;;;;;;;0.88;0.82;;;;;;;26.55;30.72;95959.47;7398597;19;20010;-56
2024/03/27 04:14:59;;;;;;;0.70;0.70;;;;;;;26.48;30.66;95949.34;7398539;19;20010;-56
2024/03/27 04:17:25;;;;;;;0.40;0.40;;;;;;;27.15;30.29;95945.03;7398679;19;20018;-56
2024/03/27 04:19:51;;;;;;;0.30;0.30;;;;;;;26.79;30.45;95937.19;7397210;19;20027;-56
2024/03/27 04:22:22;;;;;;;0.22;0.22;;;;;;;25.70;31.75;95948.16;7397281;19;20023;-56
2024/03/27 04:24:48;;;;;;;7.28;1.92;;;;;;;25.32;32.20;95947.84;7395570;19;20082;-56
2024/03/27 04:27:14;;;;;;;0.43;0.43;;;;;;;26.05;31.41;95946.88;7401382;19;20471;-56
2024/03/27 04:29:40;;;;;;;1.10;0.40;;;;;;;25.27;32.28;95960.53;7397748;19;20343;-56
2024/03/27 04:32:07;;;;;;;0.40;0.40;;;;;;;25.02;32.45;95961.25;7397563;19;20473;-56
2024/03/27 04:34:33;;;;;;;0.30;0.30;;;;;;;24.96;32.28;95974.59;7396880;19;20014;-56
2024/03/27 04:36:59;;;;;;;0.55;0.47;;;;;;;24.89;32.55;95962.31;7397356;19;20491;-56
2024/03/27 04:39:26;;;;;;;0.30;0.30;;;;;;;24.87;32.49;95945.16;7401541;19;20019;-56
2024/03/27 04:41:52;;;;;;;0.47;0.47;;;;;;;24.87;32.45;95942.31;7396929;19;20014;-56
2024/03/27 04:44:19;;;;;;;0.47;0.47;;;;;;;24.80;32.59;95935.72;7398195;19;20011;-56
2024/03/27 04:46:45;;;;;;;0.57;0.57;;;;;;;25.07;32.23;95925.06;7397391;19;20458;-56
2024/03/27 04:49:11;;;;;;;0.50;0.50;;;;;;;25.15;32.55;95931.72;7399660;19;20011;-56
2024/03/27 04:51:37;;;;;;;0.75;0.60;;;;;;;25.83;31.76;95923.53;7396596;19;20059;-56
2024/03/27 04:54:04;;;;;;;0.50;0.50;;;;;;;26.10;31.32;95926.34;7395949;19;20022;-56
2024/03/27 04:56:30;;;;;;;1.55;0.47;;;;;;;26.32;31.14;95923.28;7399494;19;20017;-56
2024/03/27 04:58:58;;;;;;;0.60;0.60;;;;;;;26.39;31.27;95922.03;7399969;19;20010;-56
2024/03/27 05:01:24;;;;;;;0.45;0.40;;;;;;;26.41;31.41;95924.91;7396607;19;20359;-56
2024/03/27 05:03:50;;;;;;;1.75;0.93;;;;;;;26.65;31.11;95919.72;7395660;19;20041;-56
2024/03/27 05:06:16;;;;;;;0.30;0.30;;;;;;;26.78;30.87;95924.31;7396785;19;20021;-56
2024/03/27 05:08:42;;;;;;;0.30;0.30;;;;;;;26.89;30.72;95920.28;7395431;19;20095;-56
2024/03/27 05:11:10;;;;;;;0.43;0.43;;;;;;;27.12;30.39;95923.53;7399876;19;20007;-56
2024/03/27 05:13:36;;;;;;;1.65;0.70;;;;;;;26.69;30.85;95911.25;7396669;19;20006;-56
2024/03/27 05:16:02;;;;;;;0.52;0.52;;;;;;;27.71;29.89;95918.25;7394418;19;20014;-56
2024/03/27 05:18:28;;;;;;;1.13;0.90;;;;;;;27.64;29.79;95913.84;7396811;19;20018;-56
2024/03/27 05:20:54;;;;;;;0.45;0.45;;;;;;;27.45;30.28;95908.50;7395900;19;20037;-56
2024/03/27 05:23:21;;;;;;;0.60;0.60;;;;;;;27.68;30.20;95910.31;7399057;19;20021;-56
2024/03/27 05:25:47;;;;;;;0.50;0.50;;;;;;;26.82;30.62;95910.13;7397357;19;20007;-56
2024/03/27 05:28:13;;;;;;;1.17;1.10;;;;;;;26.89;30.66;95914.56;7395905;19;20089;-56
2024/03/27 05:30:40;;;;;;;1.67;1.25;;;;;;;25.91;31.61;95915.16;7394979;19;20477;-56
2024/03/27 05:33:07;;;;;;;0.98;0.40;;;;;;;25.69;31.98;95921.03;7395751;19;20037;-56
2024/03/27 05:35:33;;;;;;;1.15;1.15;;;;;;;25.38;31.96;95928.06;7395744;19;20007;-56
2024/03/27 05:37:59;;;;;;;0.98;0.98;;;;;;;25.37;32.57;95935.16;7395596;19;20029;-56
2024/03/27 05:40:26;;;;;;;1.00;0.60;;;;;;;25.38;32.68;95933.75;7395459;19;20011;-56
2024/03/27 05:42:52;;;;;;;1.88;0.75;;;;;;;25.43;32.52;95928.91;7395339;19;20421;-56
2024/03/27 05:45:18;;;;;;;3.90;1.00;;;;;;;25.44;32.65;95925.41;7397454;19;20026;-56
2024/03/27 05:47:44;;;;;;;0.98;0.50;;;;;;;25.36;32.67;95928.00;7395841;19;20082;-56
2024/03/27 05:50:10;;;;;;;1.17;0.90;;;;;;;25.36;32.37;95933.69;7392978;19;20011;-56
2024/03/27 05:52:36;;;;;;;1.30;1.20;;;;;;;25.17;32.44;95923.22;7394591;19;20037;-56
2024/03/27 05:55:04;;;;;;;0.73;0.73;;;;;;;24.90;32.55;95911.78;7393267;19;20050;-56
2024/03/27 05:57:30;;;;;;;2.25;1.05;;;;;;;24.92;33.20;95909.75;7397979;19;20514;-56
2024/03/27 05:59:56;;;;;;;2.08;1.17;;;;;;;25.03;33.00;95907.88;7394827;19;20006;-56
2024/03/27 06:02:22;;;;;;;2.38;0.73;;;;;;;24.90;32.93;95911.78;7393781;19;20363;-56
2024/03/27 06:04:48;;;;;;;1.17;0.60;;;;;;;25.06;33.33;95912.97;7392959;19;20074;-56
2024/03/27 06:07:14;;;;;;;0.88;0.63;;;;;;;25.19;33.04;95911.88;7393835;19;20022;-56
2024/03/27 06:09:41;;;;;;;1.75;1.17;;;;;;;25.34;33.14;95908.00;7395853;19;20013;-56
2024/03/27 06:12:07;;;;;;;3.42;1.90;;;;;;;25.42;32.84;95902.56;7395015;19;20576;-56
2024/03/27 06:14:34;;;;;;;1.63;0.50;;;;;;;25.62;33.09;95898.78;7394123;19;20017;-56
2024/03/27 06:17:00;;;;;;;1.63;1.52;;;;;;;25.76;32.95;95890.56;7394596;19;20010;-56
2024/03/27 06:19:26;;;;;;;1.30;1.15;;;;;;;25.78;32.68;95896.31;7394443;19;20015;-56
2024/03/27 06:21:52;;;;;;;1.23;1.13;;;;;;;26.68;31.91;95884.09;7394576;19;20343;-56
2024/03/27 06:24:18;;;;;;;3.20;1.10;;;;;;;27.08;31.65;95892.78;7393772;19;20288;-56
2024/03/27 06:26:44;;;;;;;3.60;1.33;;;;;;;27.14;31.46;95903.63;7394617;19;20018;-56
2024/03/27 06:29:10;;;;;;;1.33;1.33;;;;;;;27.16;31.30;95900.78;7393792;19;20021;-56
2024/03/27 06:31:36;;;;;;;2.20;1.05;;;;;;;27.04;31.32;95907.72;7394102;19;20688;-56
2024/03/27 06:34:03;;;;;;;8.95;2.20;;;;;;;25.82;32.44;95907.81;7393507;19;20014;-56
2024/03/27 06:36:29;;;;;;;2.03;1.25;;;;;;;25.65;32.64;95911.66;7394091;19;20037;-56
2024/03/27 06:38:55;;;;;;;2.42;1.33;;;;;;;25.62;32.63;95898.78;7393319;19;20331;-56
2024/03/27 06:41:22;;;;;;;1.45;0.98;;;;;;;25.63;32.50;95898.09;7393806;19;20011;-56
2024/03/27 06:43:48;;;;;;;1.65;1.35;;;;;;;25.95;32.51;95898.13;7393037;19;20345;-56
2024/03/27 06:46:16;;;;;;;1.20;0.85;;;;;;;25.85;32.99;95895.78;7393720;19;20019;-56
2024/03/27 06:48:51;;;;;;;1.92;1.50;;;;;;;25.78;32.73;95890.59;7391603;19;20011;-56
2024/03/27 06:51:18;;;;;;;3.20;0.60;;;;;;;25.66;33.04;95887.47;7393186;19;20015;-56
2024/03/27 06:53:44;;;;;;;1.88;1.42;;;;;;;25.81;33.05;95878.59;7392160;19;20449;-56
2024/03/27 06:56:10;;;;;;;0.77;0.77;;;;;;;25.37;33.35;95883.91;7394717;19;20007;-56
2024/03/27 06:58:36;;;;;;;1.05;0.60;;;;;;;24.43;34.66;95878.44;7393278;19;20007;-56
2024/03/27 07:01:02;;;;;;;0.85;0.77;;;;;;;24.30;34.83;95888.00;7392392;19;20021;-56
2024/03/27 07:03:28;;;;;;;4.30;1.25;;;;;;;25.07;33.60;95877.41;7390637;19;20571;-56
2024/03/27 07:05:54;;;;;;;0.43;0.43;;;;;;;25.87;32.70;95869.44;7392937;19;20093;-56
2024/03/27 07:08:21;;;;;;;0.50;0.50;;;;;;;25.73;33.20;95871.97;7392300;19;20474;-56
2024/03/27 07:10:47;;;;;;;0.98;0.98;;;;;;;25.82;33.27;95870.75;7393042;19;20014;-56
2024/03/27 07:13:13;;;;;;;1.13;0.70;;;;;;;26.01;33.51;95881.19;7393385;19;20070;-56
2024/03/27 07:15:39;;;;;;;1.67;1.00;;;;;;;26.22;32.83;95872.44;7392530;19;20027;-56
2024/03/27 07:18:05;;;;;;;3.33;0.90;;;;;;;27.17;31.88;95865.81;7393720;19;20003;-56
2024/03/27 07:20:31;;;;;;;0.52;0.52;;;;;;;26.35;32.61;95859.16;7392155;19;20011;-56
2024/03/27 07:22:57;;;;;;;4.13;0.73;;;;;;;26.91;31.91;95863.19;7390592;19;20051;-56
2024/03/27 07:25:23;;;;;;;0.60;0.60;;;;;;;26.37;32.58;95867.03;7390973;19;20463;-56
2024/03/27 07:27:50;;;;;;;1.48;0.45;;;;;;;26.12;32.88;95855.09;7392077;19;20018;-56
2024/03/27 07:30:16;;;;;;;2.15;0.60;;;;;;;26.00;32.66;95854.06;7392513;19;20018;-56
2024/03/27 07:32:42;;;;;;;0.68;0.60;;;;;;;25.91;33.38;95846.72;7392553;19;20007;-56
2024/03/27 07:35:08;;;;;;;10.60;0.80;;;;;;;27.11;31.89;95844.97;7391813;19;20007;-56
2024/03/27 07:37:36;;;;;;;0.90;0.88;;;;;;;26.46;32.44;95845.84;7391762;19;20015;-56
2024/03/27 07:40:03;;;;;;;0.43;0.43;;;;;;;26.97;32.03;95846.16;7394491;19;20346;-56
2024/03/27 07:42:29;;;;;;;1.40;0.98;;;;;;;27.60;31.63;95845.16;7399353;19;20030;-56
2024/03/27 07:44:55;;;;;;;0.50;0.50;;;;;;;27.46;31.12;95844.22;7400024;19;20017;-56
2024/03/27 07:47:22;;;;;;;0.68;0.68;;;;;;;27.67;31.30;95845.97;7399466;19;20021;-56
2024/03/27 07:49:48;;;;;;;1.10;0.93;;;;;;;27.71;31.22;95846.78;7399906;19;20010;-56
2024/03/27 07:52:14;;;;;;;0.55;0.55;;;;;;;27.97;30.60;95852.19;7399307;19;20022;-56
2024/03/27 07:54:40;;;;;;;0.52;0.50;;;;;;;27.84;30.66;95844.81;7402989;19;20014;-56
2024/03/27 07:57:07;;;;;;;2.30;0.60;;;;;;;27.97;30.65;95835.03;7400567;19;20014;-56
2024/03/27 07:59:34;;;;;;;2.60;0.85;;;;;;;27.81;30.45;95849.03;7401937;19;20015;-57
2024/03/27 08:02:00;;;;;;;0.65;0.30;;;;;;;28.02;30.31;95848.00;7396639;19;20139;-58
2024/03/27 08:04:26;;;;;;;0.50;0.50;;;;;;;27.79;31.12;95837.59;7400435;19;20017;-57
2024/03/27 08:06:52;;;;;;;0.50;0.50;;;;;;;27.39;31.09;95842.66;7397520;19;20360;-56
2024/03/27 08:09:18;;;;;;;0.52;0.52;;;;;;;27.05;31.76;95852.03;7396681;19;20011;-56
2024/03/27 08:11:45;;;;;;;0.60;0.43;;;;;;;26.71;32.02;95854.19;7400866;19;20335;-56
2024/03/27 08:14:11;;;;;;;1.13;1.02;;;;;;;27.23;31.47;95853.75;7396655;19;20018;-56
2024/03/27 08:16:37;;;;;;;0.60;0.47;;;;;;;27.29;31.69;95859.59;7402238;19;20013;-56
2024/03/27 08:19:03;;;;;;;7.20;0.68;;;;;;;27.23;31.46;95853.75;7396223;19;20006;-56
2024/03/27 08:21:29;;;;;;;0.40;0.40;;;;;;;27.26;31.88;95858.84;7397727;19;20034;-56
2024/03/27 08:23:56;;;;;;;0.93;0.65;;;;;;;27.41;31.39;95854.84;7393717;19;20348;-56
2024/03/27 08:26:24;;;;;;;1.00;0.52;;;;;;;27.17;32.24;95853.66;7397571;19;20038;-56
2024/03/27 08:28:50;;;;;;;0.40;0.35;;;;;;;27.99;30.67;95852.22;7395120;19;20046;-56
2024/03/27 08:31:16;;;;;;;2.17;0.50;;;;;;;28.09;30.98;95849.50;7395455;19;20018;-56
2024/03/27 08:33:44;;;;;;;1.23;1.02;;;;;;;27.95;30.99;95860.00;7394594;19;20010;-56
2024/03/27 08:36:10;;;;;;;1.52;0.45;;;;;;;27.71;31.94;95861.06;7394259;19;20007;-56
2024/03/27 08:38:37;;;;;;;0.40;0.22;;;;;;;28.25;31.20;95852.59;7393353;19;20466;-56
2024/03/27 08:41:03;;;;;;;2.55;0.40;;;;;;;28.34;30.71;95857.03;7394587;19;20018;-56
2024/03/27 08:43:29;;;;;;;3.05;0.82;;;;;;;28.26;30.66;95859.75;7394620;19;20011;-56
2024/03/27 08:45:55;;;;;;;1.48;1.13;;;;;;;27.30;31.35;95858.19;7395626;19;20015;-56
2024/03/27 08:48:22;;;;;;;5.38;0.93;;;;;;;28.34;30.72;95848.44;7401258;19;20007;-56
2024/03/27 08:50:48;;;;;;;0.20;0.20;;;;;;;27.81;30.65;95846.19;7398419;19;20014;-56
2024/03/27 08:53:16;;;;;;;0.93;0.30;;;;;;;28.26;30.60;95836.16;7396934;19;20038;-56
2024/03/27 08:55:43;;;;;;;1.38;0.68;;;;;;;27.93;30.64;95834.94;7397569;19;20525;-56
2024/03/27 08:58:09;;;;;;;2.00;1.38;;;;;;;28.01;31.08;95840.81;7396867;19;20080;-56
2024/03/27 09:00:37;;;;;;;0.57;0.52;;;;;;;28.04;30.94;95847.28;7396904;19;20391;-56
2024/03/27 09:03:04;;;;;;;0.88;0.50;;;;;;;28.70;30.22;95838.88;7396926;19;20010;-56
2024/03/27 09:05:31;;;;;;;0.85;0.50;;;;;;;29.38;30.38;95847.50;7394945;19;20028;-56
2024/03/27 09:07:57;;;;;;;1.48;1.33;;;;;;;29.07;30.24;95846.47;7396860;19;20010;-56
2024/03/27 09:10:25;;;;;;;2.15;0.77;;;;;;;28.85;30.36;95834.75;7396232;19;20011;-56
2024/03/27 09:12:51;;;;;;;1.75;0.25;;;;;;;27.61;31.82;95843.72;7395839;19;20007;-55
2024/03/27 09:15:17;;;;;;;1.50;1.02;;;;;;;27.67;31.41;95848.84;7395010;19;20361;-56
2024/03/27 09:17:44;;;;;;;0.50;0.50;;;;;;;27.67;31.28;95828.81;7397074;19;20014;-56
2024/03/27 09:20:10;;;;;;;0.80;0.65;;;;;;;27.81;31.50;95834.75;7396334;19;20025;-56
2024/03/27 09:22:37;;;;;;;0.88;0.45;;;;;;;27.61;31.44;95843.03;7396496;19;20018;-56
2024/03/27 09:25:04;;;;;;;1.23;1.13;;;;;;;27.47;31.82;95837.06;7393971;19;20017;-55
2024/03/27 09:27:32;;;;;;;0.28;0.28;;;;;;;27.72;30.78;95821.75;7399735;19;20014;-56
2024/03/27 09:29:59;;;;;;;0.43;0.43;;;;;;;27.95;31.04;95828.53;7395773;19;20502;-56
2024/03/27 09:32:25;;;;;;;6.18;0.65;;;;;;;28.68;30.74;95815.94;7396018;19;20033;-56
2024/03/27 09:34:53;;;;;;;10.43;1.50;;;;;;;28.73;29.65;95818.16;7395864;19;20019;-55
2024/03/27 09:37:19;;;;;;;0.52;0.52;;;;;;;29.28;29.74;95825.22;7395732;19;20489;-56
2024/03/27 09:39:45;;;;;;;4.53;0.40;;;;;;;29.05;29.62;95812.06;7394668;19;20018;-55
2024/03/27 09:42:12;;;;;;;0.15;0.15;;;;;;;29.47;28.95;95820.34;7393654;19;20018;-56
2024/03/27 09:44:38;;;;;;;0.20;0.20;;;;;;;29.56;28.82;95822.56;7392154;19;20018;-55
2024/03/27 09:47:05;;;;;;;0.20;0.20;;;;;;;29.26;28.91;95824.47;7398969;19;20018;-55
2024/03/27 09:49:32;;;;;;;0.82;0.13;;;;;;;29.75;29.00;95823.47;7396277;19;20017;-56
2024/03/27 09:51:59;;;;;;;0.10;0.10;;;;;;;29.91;27.98;95826.44;7394593;19;20014;-56
2024/03/27 09:54:26;;;;;;;0.13;0.13;;;;;;;29.75;27.99;95829.94;7394835;19;20066;-55
2024/03/27 09:56:56;;;;;;;0.30;0.20;;;;;;;29.90;27.91;95848.72;7397962;19;20018;-55
2024/03/27 09:59:23;;;;;;;0.10;0.10;;;;;;;29.21;27.59;95832.31;7393822;19;20002;-56
2024/03/27 10:01:59;;;;;;;0.95;0.40;;;;;;;28.34;28.34;95831.25;7393908;19;20031;-56
2024/03/27 10:04:25;;;;;;;8.18;1.13;;;;;;;28.53;28.59;95835.06;7394376;19;20474;-56
2024/03/27 10:06:52;;;;;;;0.20;0.20;;;;;;;31.90;25.90;95821.38;7393781;19;20011;-55
2024/03/27 10:09:19;;;;;;;0.10;0.10;;;;;;;32.55;25.46;95819.09;7398189;19;20022;-55
2024/03/27 10:11:45;;;;;;;2.10;1.10;;;;;;;31.69;26.24;95822.09;7394664;19;20014;-55
2024/03/27 10:14:12;;;;;;;0.40;0.40;;;;;;;31.98;25.73;95817.81;7394391;19;20010;-56
2024/03/27 10:16:38;;;;;;;6.75;1.20;;;;;;;33.35;24.89;95817.28;7393695;19;20015;-55
2024/03/27 10:19:04;;;;;;;4.43;0.75;;;;;;;33.76;24.60;95815.56;7396506;19;20011;-55
2024/03/27 10:21:31;;;;;;;0.30;0.30;;;;;;;34.40;23.93;95804.81;7394369;19;20014;-55
2024/03/27 10:23:57;;;;;;;0.32;0.32;;;;;;;33.98;24.21;95797.31;7393954;19;20017;-55
2024/03/27 10:26:23;;;;;;;4.05;0.63;;;;;;;33.98;24.00;95809.56;7395987;19;20014;-55
2024/03/27 10:28:49;;;;;;;0.22;0.20;;;;;;;34.31;23.47;95796.25;7395271;19;20075;-55
2024/03/27 10:31:16;;;;;;;15.57;2.30;;;;;;;34.62;23.57;95807.50;7392744;19;20018;-55
2024/03/27 10:33:42;;;;;;;7.65;0.68;;;;;;;34.55;23.76;95803.22;7393116;19;20022;-55
2024/03/27 10:36:12;;;;;;;1.70;0.80;;;;;;;34.15;23.88;95796.44;7397233;19;20010;-55
2024/03/27 10:38:42;;;;;;;0.65;0.65;;;;;;;34.64;23.44;95798.78;7393313;19;20017;-55
2024/03/27 10:41:11;;;;;;;2.97;0.63;;;;;;;34.49;23.11;95797.50;7395850;19;20011;-55
2024/03/27 10:43:43;;;;;;;1.58;0.50;;;;;;;33.87;23.94;95799.59;7393523;19;20647;-55
2024/03/27 10:46:12;;;;;;;6.65;1.77;;;;;;;32.09;25.57;95799.06;7393268;19;20061;-56
2024/03/27 10:48:40;;;;;;;2.45;0.47;;;;;;;31.56;25.48;95798.38;7392640;19;20017;-57
2024/03/27 10:51:07;;;;;;;0.43;0.25;;;;;;;32.44;24.99;95783.13;7393125;19;20006;-57
2024/03/27 10:53:33;;;;;;;6.70;1.75;;;;;;;33.43;24.46;95782.59;7395617;19;20043;-59
2024/03/27 10:56:00;;;;;;;9.68;2.00;;;;;;;34.02;24.28;95789.38;7393661;19;20014;-57
2024/03/27 10:58:27;;;;;;;5.78;1.05;;;;;;;34.55;24.17;95768.56;7392969;19;20007;-58
2024/03/27 11:00:57;;;;;;;6.75;1.55;;;;;;;33.71;24.57;95775.91;7393533;19;20015;-57
2024/03/27 11:03:27;;;;;;;4.50;0.73;;;;;;;33.13;25.00;95785.72;7392590;19;20028;-57
2024/03/27 11:05:54;;;;;;;6.10;1.37;;;;;;;31.88;25.39;95783.25;7395107;19;20015;-57
2024/03/27 11:08:20;;;;;;;1.15;0.20;;;;;;;31.49;25.82;95796.22;7392798;19;20239;-58
2024/03/27 11:10:46;;;;;;;2.03;0.88;;;;;;;31.45;25.83;95813.50;7391445;19;20011;-58
2024/03/27 11:13:12;;;;;;;3.75;0.55;;;;;;;31.60;25.83;95826.44;7391977;19;20022;-58
2024/03/27 11:15:40;;;;;;;2.60;0.17;;;;;;;31.61;25.93;95845.13;7398580;19;20074;-57
2024/03/27 11:18:15;;;;;;;1.15;0.93;;;;;;;31.87;25.95;95882.53;7399411;19;20020;-58
2024/03/27 11:20:53;;;;;;;0.30;0.30;;;;;;;31.67;25.81;95882.53;7399725;19;20066;-58
2024/03/27 11:23:32;;;;;;;0.13;0.13;;;;;;;31.40;25.38;95879.63;7400044;19;20028;-58
2024/03/27 11:25:59;;;;;;;0.68;0.47;;;;;;;31.25;25.11;95883.88;7398828;19;20478;-57
2024/03/27 11:28:26;;;;;;;0.60;0.35;;;;;;;31.12;25.63;95888.13;7401179;19;20007;-57
2024/03/27 11:30:55;;;;;;;0.50;0.50;;;;;;;30.75;25.53;95895.19;7399846;19;20054;-58